createdAt,value
2023-05-21T00:00:57.993Z,94618.34
2023-05-21T00:03:27.159Z,94612.00
2023-05-21T00:05:54.571Z,94616.44
2023-05-21T00:08:21.482Z,94613.53
2023-05-21T00:10:48.154Z,94617.78
2023-05-21T00:13:14.914Z,94620.00
2023-05-21T00:15:41.652Z,94619.41
2023-05-21T00:18:08.283Z,94622.13
2023-05-21T00:20:35.544Z,94623.94
2023-05-21T00:23:02.972Z,94616.81
2023-05-21T00:25:30.298Z,94613.44
2023-05-21T00:27:57.082Z,94606.59
2023-05-21T00:30:24.803Z,94607.56
2023-05-21T00:32:51.419Z,94611.75
2023-05-21T00:35:18.452Z,94605.50
2023-05-21T00:37:45.446Z,94609.94
2023-05-21T00:40:12.891Z,94605.94
2023-05-21T00:42:39.614Z,94611.94
2023-05-21T00:45:08.409Z,94603.88
2023-05-21T00:47:36.046Z,94600.31
2023-05-21T00:50:04.927Z,94602.25
2023-05-21T00:52:31.561Z,94599.84
2023-05-21T00:54:58.495Z,94601.59
2023-05-21T00:57:27.253Z,94594.97
2023-05-21T00:59:54.397Z,94598.66
2023-05-21T01:02:24.010Z,94595.97
2023-05-21T01:04:52.065Z,94600.16
2023-05-21T01:07:18.769Z,94596.16
2023-05-21T01:09:45.691Z,94590.34
2023-05-21T01:12:14.004Z,94595.69
2023-05-21T01:14:42.132Z,94596.97
2023-05-21T01:17:10.551Z,94596.16
2023-05-21T01:19:37.813Z,94596.34
2023-05-21T01:22:07.841Z,94589.69
2023-05-21T01:24:35.529Z,94588.09
2023-05-21T01:27:06.721Z,94583.06
2023-05-21T01:29:33.834Z,94587.13
2023-05-21T01:32:10.053Z,94583.13
2023-05-21T01:35:11.219Z,94576.50
2023-05-21T01:37:41.675Z,94574.72
2023-05-21T01:40:29.888Z,94571.19
2023-05-21T01:42:58.501Z,94574.09
2023-05-21T01:45:27.972Z,94577.63
2023-05-21T01:47:56.642Z,94577.63
2023-05-21T01:50:27.000Z,94576.34
2023-05-21T01:52:56.978Z,94581.34
2023-05-21T01:55:33.260Z,94572.47
2023-05-21T01:58:02.336Z,94571.03
2023-05-21T02:00:30.950Z,94580.22
2023-05-21T02:02:58.725Z,94567.97
2023-05-21T02:05:26.148Z,94574.56
2023-05-21T02:07:52.809Z,94576.66
2023-05-21T02:10:19.736Z,94576.66
2023-05-21T02:12:46.917Z,94580.38
2023-05-21T02:15:18.148Z,94578.59
2023-05-21T02:17:46.337Z,94572.47
2023-05-21T02:20:14.631Z,94572.66
2023-05-21T02:22:44.476Z,94576.03
2023-05-21T02:25:12.882Z,94571.69
2023-05-21T02:27:40.684Z,94573.75
2023-05-21T02:30:09.467Z,94569.25
2023-05-21T02:32:37.237Z,94571.03
2023-05-21T02:35:04.877Z,94563.63
2023-05-21T02:37:35.051Z,94569.56
2023-05-21T02:40:07.247Z,94570.53
2023-05-21T02:42:36.635Z,94566.19
2023-05-21T02:45:03.739Z,94565.53
2023-05-21T02:47:30.791Z,94570.06
2023-05-21T02:50:00.266Z,94557.81
2023-05-21T02:52:27.579Z,94561.03
2023-05-21T02:54:54.300Z,94569.59
2023-05-21T02:57:21.194Z,94565.25
2023-05-21T02:59:48.052Z,94568.78
2023-05-21T03:02:14.893Z,94562.81
2023-05-21T03:04:45.992Z,94564.59
2023-05-21T03:07:14.477Z,94561.34
2023-05-21T03:09:42.457Z,94561.34
2023-05-21T03:12:10.279Z,94553.28
2023-05-21T03:14:37.349Z,94551.38
2023-05-21T03:17:08.061Z,94555.72
2023-05-21T03:19:36.540Z,94559.41
2023-05-21T03:22:05.169Z,94553.75
2023-05-21T03:24:35.327Z,94550.72
2023-05-21T03:27:02.415Z,94544.69
2023-05-21T03:29:29.373Z,94545.34
2023-05-21T03:31:56.825Z,94554.03
2023-05-21T03:34:24.297Z,94556.31
2023-05-21T03:36:51.257Z,94552.09
2023-05-21T03:39:18.840Z,94545.66
2023-05-21T03:41:45.932Z,94544.69
2023-05-21T03:44:20.750Z,94550.00
2023-05-21T03:47:03.683Z,94549.22
2023-05-21T03:49:33.471Z,94548.22
2023-05-21T03:52:00.225Z,94554.19
2023-05-21T03:54:27.736Z,94555.66
2023-05-21T03:56:59.892Z,94556.47
2023-05-21T03:59:27.886Z,94565.78
2023-05-21T04:01:55.411Z,94568.47
2023-05-21T04:04:22.091Z,94563.34
2023-05-21T04:06:49.742Z,94564.16
2023-05-21T04:09:16.678Z,94565.44
2023-05-21T04:11:43.415Z,94568.03
2023-05-21T04:14:10.671Z,94558.19
2023-05-21T04:16:38.868Z,94553.66
2023-05-21T04:19:06.627Z,94555.78
2023-05-21T04:21:33.679Z,94558.69
2023-05-21T04:24:01.052Z,94566.28
2023-05-21T04:26:42.611Z,94572.47
2023-05-21T04:29:10.053Z,94578.44
2023-05-21T04:31:37.066Z,94571.66
2023-05-21T04:34:04.397Z,94577.97
2023-05-21T04:36:31.495Z,94581.34
2023-05-21T04:38:58.233Z,94585.88
2023-05-21T04:41:24.877Z,94576.53
2023-05-21T04:43:55.129Z,94575.06
2023-05-21T04:46:27.214Z,94579.72
2023-05-21T04:48:58.037Z,94584.59
2023-05-21T04:51:24.985Z,94587.16
2023-05-21T04:53:52.126Z,94583.94
2023-05-21T04:56:18.900Z,94578.13
2023-05-21T04:58:48.030Z,94585.38
2023-05-21T05:01:15.882Z,94593.44
2023-05-21T05:03:42.806Z,94592.47
2023-05-21T05:06:09.634Z,94589.53
2023-05-21T05:08:36.482Z,94589.03
2023-05-21T05:11:04.015Z,94584.50
2023-05-21T05:13:30.954Z,94583.50
2023-05-21T05:15:57.791Z,94582.97
2023-05-21T05:18:24.646Z,94588.75
2023-05-21T05:20:51.613Z,94593.72
2023-05-21T05:23:18.610Z,94584.50
2023-05-21T05:25:45.692Z,94585.81
2023-05-21T05:28:12.411Z,94589.97
2023-05-21T05:30:39.137Z,94590.75
2023-05-21T05:33:16.182Z,94590.75
2023-05-21T05:35:42.819Z,94586.03
2023-05-21T05:38:09.619Z,94593.72
2023-05-21T05:40:37.191Z,94584.44
2023-05-21T05:43:04.012Z,94586.28
2023-05-21T05:45:30.910Z,94580.03
2023-05-21T05:47:57.853Z,94581.06
2023-05-21T05:50:24.520Z,94587.59
2023-05-21T05:52:51.888Z,94587.09
2023-05-21T05:55:18.736Z,94586.28
2023-05-21T05:57:45.410Z,94587.13
2023-05-21T06:00:15.286Z,94592.44
2023-05-21T06:02:48.196Z,94589.97
2023-05-21T06:05:15.499Z,94590.34
2023-05-21T06:07:42.238Z,94590.50
2023-05-21T06:10:09.305Z,94593.72
2023-05-21T06:12:36.023Z,94588.28
2023-05-21T06:15:03.000Z,94594.34
2023-05-21T06:17:31.676Z,94597.81
2023-05-21T06:19:58.420Z,94591.00
2023-05-21T06:22:27.390Z,94589.88
2023-05-21T06:24:54.794Z,94594.22
2023-05-21T06:27:21.445Z,94595.44
2023-05-21T06:29:49.323Z,94598.28
2023-05-21T06:32:16.107Z,94599.44
2023-05-21T06:34:42.874Z,94594.94
2023-05-21T06:37:09.927Z,94606.75
2023-05-21T06:39:36.553Z,94599.41
2023-05-21T06:42:03.606Z,94599.31
2023-05-21T06:44:46.156Z,94604.88
2023-05-21T06:47:42.090Z,94608.88
2023-05-21T06:50:09.230Z,94601.91
2023-05-21T06:52:36.095Z,94601.50
2023-05-21T06:55:03.389Z,94608.56
2023-05-21T06:57:48.096Z,94601.72
2023-05-21T07:00:14.990Z,94602.34
2023-05-21T07:02:42.509Z,94608.41
2023-05-21T07:05:09.709Z,94615.00
2023-05-21T07:07:36.848Z,94601.22
2023-05-21T07:10:04.090Z,94600.66
2023-05-21T07:12:31.029Z,94615.56
2023-05-21T07:14:59.285Z,94610.38
2023-05-21T07:17:27.107Z,94612.22
2023-05-21T07:19:54.015Z,94612.00
2023-05-21T07:22:20.966Z,94611.19
2023-05-21T07:24:47.579Z,94607.16
2023-05-21T07:27:25.327Z,94613.97
2023-05-21T07:29:53.858Z,94611.69
2023-05-21T07:32:21.061Z,94612.50
2023-05-21T07:34:48.426Z,94604.66
2023-05-21T07:37:15.395Z,94613.13
2023-05-21T07:39:42.095Z,94605.84
2023-05-21T07:42:10.516Z,94608.16
2023-05-21T07:44:37.149Z,94607.44
2023-05-21T07:47:04.268Z,94606.44
2023-05-21T07:49:31.007Z,94608.50
2023-05-21T07:51:58.135Z,94603.53
2023-05-21T07:54:24.951Z,94613.69
2023-05-21T07:56:52.146Z,94614.75
2023-05-21T07:59:38.733Z,94615.66
2023-05-21T08:02:05.727Z,94612.19
2023-05-21T08:04:32.737Z,94618.53
2023-05-21T08:06:59.809Z,94613.81
2023-05-21T08:09:26.429Z,94616.84
2023-05-21T08:11:53.235Z,94613.63
2023-05-21T08:14:20.867Z,94624.00
2023-05-21T08:16:48.383Z,94613.22
2023-05-21T08:19:15.500Z,94622.16
2023-05-21T08:21:42.460Z,94621.84
2023-05-21T08:24:11.003Z,94619.47
2023-05-21T08:26:37.867Z,94624.09
2023-05-21T08:29:04.707Z,94614.38
2023-05-21T08:31:31.535Z,94615.13
2023-05-21T08:33:58.356Z,94619.25
2023-05-21T08:36:36.919Z,94616.47
2023-05-21T08:39:09.030Z,94625.84
2023-05-21T08:41:40.212Z,94619.72
2023-05-21T08:44:12.524Z,94623.97
2023-05-21T08:46:43.402Z,94624.00
2023-05-21T08:49:13.293Z,94616.13
2023-05-21T08:51:41.693Z,94614.78
2023-05-21T08:54:09.489Z,94617.53
2023-05-21T08:56:37.002Z,94618.19
2023-05-21T08:59:03.759Z,94626.91
2023-05-21T09:01:35.577Z,94622.66
2023-05-21T09:04:29.022Z,94620.72
2023-05-21T09:06:58.070Z,94621.13
2023-05-21T09:09:53.294Z,94623.56
2023-05-21T09:12:20.518Z,94626.63
2023-05-21T09:14:47.807Z,94630.59
2023-05-21T09:17:17.982Z,94626.03
2023-05-21T09:20:12.135Z,94628.31
2023-05-21T09:22:44.606Z,94628.78
2023-05-21T09:25:13.661Z,94629.25
2023-05-21T09:27:40.586Z,94634.13
2023-05-21T09:30:12.864Z,94631.91
2023-05-21T09:32:40.904Z,94633.09
2023-05-21T09:35:10.170Z,94634.34
2023-05-21T09:37:38.277Z,94632.88
2023-05-21T09:40:15.276Z,94631.63
2023-05-21T09:42:49.844Z,94642.34
2023-05-21T09:45:23.208Z,94636.50
2023-05-21T09:47:53.022Z,94634.22
2023-05-21T09:50:21.956Z,94634.06
2023-05-21T09:52:50.648Z,94631.63
2023-05-21T09:55:17.482Z,94630.00
2023-05-21T09:57:49.875Z,94627.19
2023-05-21T10:00:27.579Z,94631.25
2023-05-21T10:02:55.908Z,94631.25
2023-05-21T10:05:28.060Z,94634.25
2023-05-21T10:08:01.032Z,94632.78
2023-05-21T10:10:29.181Z,94627.38
2023-05-21T10:13:00.818Z,94630.72
2023-05-21T10:15:30.632Z,94634.00
2023-05-21T10:17:58.943Z,94632.53
2023-05-21T10:20:26.070Z,94639.00
2023-05-21T10:22:53.488Z,94645.88
2023-05-21T10:25:20.904Z,94641.81
2023-05-21T10:27:48.874Z,94636.16
2023-05-21T10:30:18.201Z,94636.69
2023-05-21T10:32:47.991Z,94638.34
2023-05-21T10:35:16.725Z,94641.00
2023-05-21T10:37:46.366Z,94629.63
2023-05-21T10:40:13.667Z,94635.81
2023-05-21T10:43:11.521Z,94632.38
2023-05-21T10:46:15.792Z,94635.69
2023-05-21T10:48:58.014Z,94631.97
2023-05-21T10:51:45.102Z,94637.28
2023-05-21T10:54:41.858Z,94633.94
2023-05-21T10:57:08.493Z,94632.44
2023-05-21T10:59:43.381Z,94627.66
2023-05-21T11:02:12.924Z,94622.53
2023-05-21T11:04:42.460Z,94624.16
2023-05-21T11:07:09.484Z,94627.75
2023-05-21T11:09:36.490Z,94619.84
2023-05-21T11:12:04.673Z,94624.84
2023-05-21T11:14:43.020Z,94631.00
2023-05-21T11:17:11.203Z,94632.19
2023-05-21T11:19:43.879Z,94628.75
2023-05-21T11:22:27.451Z,94625.59
2023-05-21T11:24:56.202Z,94629.53
2023-05-21T11:27:33.846Z,94631.66
2023-05-21T11:30:08.090Z,94624.25
2023-05-21T11:33:11.262Z,94621.91
2023-05-21T11:35:50.196Z,94623.47
2023-05-21T11:38:18.088Z,94620.81
2023-05-21T11:40:54.936Z,94618.81
2023-05-21T11:43:22.283Z,94620.00
2023-05-21T11:45:52.325Z,94618.34
2023-05-21T11:48:21.265Z,94620.25
2023-05-21T11:50:48.259Z,94614.16
2023-05-21T11:53:15.560Z,94614.81
2023-05-21T11:55:43.720Z,94620.34
2023-05-21T11:58:16.794Z,94612.28
2023-05-21T12:00:43.646Z,94617.66
2023-05-21T12:03:14.271Z,94617.09
2023-05-21T12:05:48.465Z,94622.34
2023-05-21T12:08:25.422Z,94617.00
2023-05-21T12:10:59.064Z,94616.31
2023-05-21T12:13:26.216Z,94606.00
2023-05-21T12:15:54.309Z,94602.25
2023-05-21T12:18:21.645Z,94603.59
2023-05-21T12:20:48.493Z,94596.34
2023-05-21T12:23:23.993Z,94598.72
2023-05-21T12:25:51.671Z,94607.75
2023-05-21T12:28:18.587Z,94602.47
2023-05-21T12:30:45.552Z,94598.22
2023-05-21T12:33:14.218Z,94602.25
2023-05-21T12:35:40.998Z,94602.22
2023-05-21T12:38:09.817Z,94606.56
2023-05-21T12:40:38.406Z,94603.38
2023-05-21T12:43:06.227Z,94603.38
2023-05-21T12:45:33.647Z,94602.75
2023-05-21T12:48:03.542Z,94602.75
2023-05-21T12:50:30.237Z,94598.69
2023-05-21T12:52:58.516Z,94602.19
2023-05-21T12:55:28.667Z,94595.84
2023-05-21T12:58:08.302Z,94603.75
2023-05-21T13:00:35.732Z,94602.84
2023-05-21T13:03:04.594Z,94602.25
2023-05-21T13:05:31.708Z,94607.41
2023-05-21T13:07:58.443Z,94600.78
2023-05-21T13:10:25.373Z,94597.81
2023-05-21T13:12:51.940Z,94597.88
2023-05-21T13:15:19.053Z,94600.88
2023-05-21T13:17:47.231Z,94597.19
2023-05-21T13:20:21.841Z,94592.69
2023-05-21T13:22:51.155Z,94585.94
2023-05-21T13:25:24.507Z,94587.03
2023-05-21T13:27:52.604Z,94586.38
2023-05-21T13:30:20.571Z,94582.22
2023-05-21T13:32:47.784Z,94576.81
2023-05-21T13:35:16.475Z,94573.41
2023-05-21T13:37:43.332Z,94571.59
2023-05-21T13:40:12.355Z,94575.00
2023-05-21T13:42:39.162Z,94570.69
2023-05-21T13:45:07.689Z,94563.97
2023-05-21T13:47:37.442Z,94570.03
2023-05-21T13:50:06.479Z,94574.31
2023-05-21T13:52:33.239Z,94567.75
2023-05-21T13:54:59.991Z,94575.75
2023-05-21T13:57:31.178Z,94560.25
2023-05-21T13:59:58.859Z,94559.31
2023-05-21T14:02:26.402Z,94573.34
2023-05-21T14:04:53.998Z,94568.38
2023-05-21T14:07:21.600Z,94561.34
2023-05-21T14:09:48.661Z,94557.66
2023-05-21T14:12:15.690Z,94557.53
2023-05-21T14:14:42.471Z,94561.72
2023-05-21T14:17:09.699Z,94562.72
2023-05-21T14:19:36.416Z,94561.00
2023-05-21T14:22:03.230Z,94566.97
2023-05-21T14:24:29.844Z,94565.06
2023-05-21T14:26:56.802Z,94558.22
2023-05-21T14:29:23.390Z,94561.78
2023-05-21T14:31:50.327Z,94555.72
2023-05-21T14:34:17.769Z,94563.19
2023-05-21T14:36:44.476Z,94560.66
2023-05-21T14:39:11.218Z,94552.66
2023-05-21T14:41:39.729Z,94561.00
2023-05-21T14:44:06.820Z,94558.16
2023-05-21T14:46:33.664Z,94550.28
2023-05-21T14:49:00.798Z,94551.66
2023-05-21T14:51:27.523Z,94545.75
2023-05-21T14:53:54.382Z,94540.00
2023-05-21T14:56:22.119Z,94538.78
2023-05-21T14:58:49.344Z,94543.66
2023-05-21T15:01:16.155Z,94543.84
2023-05-21T15:03:43.392Z,94542.59
2023-05-21T15:06:10.337Z,94544.59
2023-05-21T15:08:37.048Z,94541.88
2023-05-21T15:11:03.804Z,94552.00
2023-05-21T15:13:30.932Z,94547.34
2023-05-21T15:15:57.601Z,94552.41
2023-05-21T15:18:24.853Z,94553.13
2023-05-21T15:20:52.005Z,94554.25
2023-05-21T15:23:18.861Z,94547.03
2023-05-21T15:25:46.199Z,94548.38
2023-05-21T15:28:13.041Z,94539.19
2023-05-21T15:30:40.502Z,94541.91
2023-05-21T15:33:07.593Z,94531.72
2023-05-21T15:35:37.983Z,94532.44
2023-05-21T15:38:05.090Z,94540.31
2023-05-21T15:40:32.396Z,94532.03
2023-05-21T15:42:59.253Z,94529.06
2023-05-21T15:45:26.062Z,94531.22
2023-05-21T15:47:52.975Z,94529.09
2023-05-21T15:50:19.823Z,94537.94
2023-05-21T15:52:46.840Z,94537.59
2023-05-21T15:55:14.171Z,94529.81
2023-05-21T15:57:41.033Z,94527.00
2023-05-21T16:00:09.342Z,94525.16
2023-05-21T16:02:36.472Z,94520.66
2023-05-21T16:05:03.469Z,94514.69
2023-05-21T16:07:30.148Z,94518.84
2023-05-21T16:09:57.022Z,94518.69
2023-05-21T16:12:23.653Z,94518.84
2023-05-21T16:14:50.390Z,94524.69
2023-05-21T16:17:18.207Z,94524.91
2023-05-21T16:19:44.863Z,94522.50
2023-05-21T16:22:11.793Z,94512.94
2023-05-21T16:24:38.618Z,94516.31
2023-05-21T16:27:05.666Z,94521.31
2023-05-21T16:29:32.388Z,94511.22
2023-05-21T16:31:59.106Z,94512.31
2023-05-21T16:34:25.898Z,94510.69
2023-05-21T16:36:52.571Z,94508.66
2023-05-21T16:39:19.460Z,94508.72
2023-05-21T16:41:46.104Z,94517.22
2023-05-21T16:44:14.654Z,94511.00
2023-05-21T16:46:41.603Z,94512.25
2023-05-21T16:49:09.802Z,94512.38
2023-05-21T16:51:36.370Z,94522.16
2023-05-21T16:54:04.733Z,94520.44
2023-05-21T16:56:31.889Z,94519.63
2023-05-21T16:58:58.661Z,94521.00
2023-05-21T17:01:26.039Z,94520.63
2023-05-21T17:03:53.385Z,94521.63
2023-05-21T17:06:20.250Z,94522.75
2023-05-21T17:08:47.390Z,94517.75
2023-05-21T17:11:14.062Z,94524.72
2023-05-21T17:13:41.111Z,94515.31
2023-05-21T17:16:08.023Z,94520.28
2023-05-21T17:18:34.783Z,94511.91
2023-05-21T17:21:01.385Z,94516.13
2023-05-21T17:23:28.136Z,94517.25
2023-05-21T17:25:54.691Z,94518.09
2023-05-21T17:28:21.725Z,94517.50
2023-05-21T17:30:49.643Z,94518.91
2023-05-21T17:33:16.745Z,94521.41
2023-05-21T17:35:43.504Z,94521.69
2023-05-21T17:38:10.471Z,94524.31
2023-05-21T17:40:37.387Z,94525.00
2023-05-21T17:43:04.878Z,94531.06
2023-05-21T17:45:31.865Z,94531.63
2023-05-21T17:48:00.492Z,94522.63
2023-05-21T17:50:28.027Z,94530.84
2023-05-21T17:52:54.687Z,94531.94
2023-05-21T17:55:21.681Z,94536.25
2023-05-21T17:57:48.432Z,94534.38
2023-05-21T18:00:15.442Z,94539.41
2023-05-21T18:02:42.279Z,94539.59
2023-05-21T18:05:09.298Z,94539.94
2023-05-21T18:07:36.960Z,94540.25
2023-05-21T18:10:04.090Z,94540.69
2023-05-21T18:12:30.698Z,94549.28
2023-05-21T18:14:57.541Z,94548.94
2023-05-21T18:17:24.370Z,94548.38
2023-05-21T18:19:51.162Z,94547.28
2023-05-21T18:22:17.860Z,94544.53
2023-05-21T18:24:44.684Z,94547.94
2023-05-21T18:27:12.294Z,94544.47
2023-05-21T18:29:39.161Z,94551.19
2023-05-21T18:32:06.364Z,94549.38
2023-05-21T18:34:33.509Z,94543.72
2023-05-21T18:37:00.634Z,94550.09
2023-05-21T18:39:28.061Z,94543.00
2023-05-21T18:42:11.385Z,94548.50
2023-05-21T18:44:39.553Z,94553.59
2023-05-21T18:47:07.812Z,94549.03
2023-05-21T18:49:36.241Z,94550.97
2023-05-21T18:52:04.512Z,94556.44
2023-05-21T18:54:31.332Z,94552.09
2023-05-21T18:57:00.515Z,94550.94
2023-05-21T18:59:28.671Z,94549.78
2023-05-21T19:01:55.614Z,94552.03
2023-05-21T19:04:22.485Z,94559.38
2023-05-21T19:06:49.417Z,94557.09
2023-05-21T19:09:16.165Z,94562.75
2023-05-21T19:11:43.171Z,94566.59
2023-05-21T19:14:09.766Z,94565.19
2023-05-21T19:16:36.717Z,94573.63
2023-05-21T19:19:04.308Z,94568.22
2023-05-21T19:21:31.416Z,94569.63
2023-05-21T19:23:58.937Z,94574.84
2023-05-21T19:26:25.585Z,94573.06
2023-05-21T19:28:55.440Z,94576.06
2023-05-21T19:31:23.617Z,94575.47
2023-05-21T19:33:50.859Z,94574.09
2023-05-21T19:36:18.479Z,94575.28
2023-05-21T19:38:49.653Z,94581.09
2023-05-21T19:41:17.171Z,94580.09
2023-05-21T19:43:44.730Z,94584.53
2023-05-21T19:46:11.668Z,94585.91
2023-05-21T19:48:38.760Z,94586.88
2023-05-21T19:51:06.227Z,94597.25
2023-05-21T19:53:32.808Z,94598.72
2023-05-21T19:55:59.863Z,94601.06
2023-05-21T19:58:29.626Z,94599.66
2023-05-21T20:00:58.477Z,94592.25
2023-05-21T20:03:26.624Z,94599.03
2023-05-21T20:05:53.552Z,94593.22
2023-05-21T20:08:20.697Z,94597.81
2023-05-21T20:10:49.521Z,94593.00
2023-05-21T20:13:18.395Z,94597.78
2023-05-21T20:15:45.111Z,94595.34
2023-05-21T20:18:12.718Z,94600.75
2023-05-21T20:20:41.350Z,94599.13
2023-05-21T20:23:08.551Z,94600.88
2023-05-21T20:25:35.892Z,94603.06
2023-05-21T20:28:03.074Z,94605.66
2023-05-21T20:30:34.200Z,94597.03
2023-05-21T20:33:02.437Z,94598.38
2023-05-21T20:35:29.456Z,94600.75
2023-05-21T20:37:56.237Z,94600.72
2023-05-21T20:40:22.874Z,94602.13
2023-05-21T20:42:51.833Z,94596.44
2023-05-21T20:45:18.640Z,94593.13
2023-05-21T20:47:45.369Z,94596.25
2023-05-21T20:50:12.275Z,94597.16
2023-05-21T20:52:39.410Z,94599.97
2023-05-21T20:55:06.402Z,94595.56
2023-05-21T20:57:33.261Z,94596.34
2023-05-21T21:00:00.031Z,94590.22
2023-05-21T21:02:27.092Z,94598.97
2023-05-21T21:04:53.979Z,94595.53
2023-05-21T21:07:20.946Z,94597.13
2023-05-21T21:09:48.994Z,94604.31
2023-05-21T21:12:26.222Z,94604.81
2023-05-21T21:14:54.225Z,94608.47
2023-05-21T21:17:21.225Z,94610.97
2023-05-21T21:19:47.901Z,94609.72
2023-05-21T21:22:16.001Z,94608.59
2023-05-21T21:24:43.117Z,94607.25
2023-05-21T21:27:10.085Z,94599.22
2023-05-21T21:29:36.686Z,94599.59
2023-05-21T21:32:03.486Z,94611.38
2023-05-21T21:34:30.243Z,94611.38
2023-05-21T21:36:56.847Z,94609.84
2023-05-21T21:39:23.938Z,94610.09
2023-05-21T21:41:50.623Z,94608.97
2023-05-21T21:44:17.342Z,94608.31
2023-05-21T21:46:44.366Z,94608.31
2023-05-21T21:49:11.056Z,94610.56
2023-05-21T21:51:38.067Z,94612.97
2023-05-21T21:54:05.003Z,94618.16
2023-05-21T21:56:31.564Z,94622.47
2023-05-21T21:58:58.268Z,94619.00
2023-05-21T22:01:24.964Z,94623.47
2023-05-21T22:03:51.633Z,94617.94
2023-05-21T22:06:18.372Z,94618.91
2023-05-21T22:08:45.099Z,94621.91
2023-05-21T22:11:12.136Z,94623.34
2023-05-21T22:13:41.644Z,94624.66
2023-05-21T22:16:08.216Z,94614.63
2023-05-21T22:18:40.162Z,94619.81
2023-05-21T22:21:10.132Z,94615.63
2023-05-21T22:23:37.944Z,94613.66
2023-05-21T22:26:04.877Z,94618.31
2023-05-21T22:28:31.501Z,94617.97
2023-05-21T22:30:59.081Z,94623.31
2023-05-21T22:33:26.975Z,94621.84
2023-05-21T22:35:54.388Z,94616.53
2023-05-21T22:38:21.525Z,94623.69
2023-05-21T22:40:48.605Z,94622.69
2023-05-21T22:43:15.250Z,94619.34
2023-05-21T22:45:42.330Z,94630.88
2023-05-21T22:48:09.541Z,94626.78
2023-05-21T22:50:38.838Z,94623.66
2023-05-21T22:53:06.865Z,94633.06
2023-05-21T22:55:33.612Z,94628.50
2023-05-21T22:58:00.236Z,94623.19
2023-05-21T23:00:27.277Z,94628.75
2023-05-21T23:02:54.666Z,94624.31
2023-05-21T23:05:22.371Z,94622.03
2023-05-21T23:07:49.417Z,94628.69
2023-05-21T23:10:16.080Z,94627.66
2023-05-21T23:12:42.833Z,94622.84
2023-05-21T23:15:10.811Z,94628.88
2023-05-21T23:17:38.229Z,94629.41
2023-05-21T23:20:07.256Z,94626.00
2023-05-21T23:22:35.043Z,94631.81
2023-05-21T23:25:02.023Z,94637.50
2023-05-21T23:27:29.178Z,94632.88
2023-05-21T23:29:56.508Z,94630.97
2023-05-21T23:32:23.743Z,94630.78
2023-05-21T23:34:50.823Z,94625.47
2023-05-21T23:37:17.651Z,94629.66
2023-05-21T23:39:48.389Z,94630.13
2023-05-21T23:42:18.601Z,94626.41
2023-05-21T23:44:45.504Z,94629.63
2023-05-21T23:47:12.359Z,94626.41
2023-05-21T23:49:39.460Z,94631.31
2023-05-21T23:52:07.048Z,94629.56
2023-05-21T23:54:33.843Z,94624.56
2023-05-21T23:57:00.888Z,94627.75
2023-05-21T23:59:27.579Z,94627.28
